Fonthida Naree — HSJR — position and weather

sailwx.info

Track history (hours):
 
Tides and Currents Weather Stations Pressure Air Temp Water Temp Dewpoint Dewpoint Depression Visibility Wind Speed Wind Dir Waves Ship Positions

Fonthida Naree

Last reported at 2015-May-27 05:33 UTC. Time now 2015-May-30 14:16 UTC.
Position N 31°47' E 029°28'.

Length 170 m; draft 9.3 m.

Type: Cargo ship. MMSI: 567265000.

Date/timePositionNaut miles runAvg speedWind from/ knotsBaromVisibWave heightAir tempDewpointWater temp
2015-May-27 05:33N 31°47' E 029°28'8 1.5
2015-May-27 00:20N 31°41' E 029°34'3 1.5
2015-May-26 22:14N 31°39' E 029°36'3 1.6
2015-May-26 20:25N 31°38' E 029°39'3 1.5
2015-May-26 18:26N 31°38' E 029°43'1 1.1
2015-May-26 17:21N 31°37' E 029°44'0 0.2
2015-May-26 16:33N 31°37' E 029°44'0 0.3
2015-May-26 15:34N 31°37' E 029°44'0 0.4
2015-May-26 14:29N 31°37' E 029°45'0 0.3
2015-May-26 13:33N 31°37' E 029°45'0 0.3
2015-May-26 12:33N 31°37' E 029°45'0 0.4
2015-May-26 11:23N 31°38' E 029°44'0 0.2
2015-May-26 10:33N 31°38' E 029°44'0 0.2
2015-May-26 09:27N 31°37' E 029°44'0 0.2
2015-May-26 08:25N 31°37' E 029°44'11 0.9
2015-May-25 20:19N 31°26' E 029°46'1 0.9
2015-May-25 19:19N 31°26' E 029°45'1 0.9
2015-May-25 18:29N 31°27' E 029°44'1 0.9
2015-May-25 17:27N 31°27' E 029°43'1 0.9
2015-May-25 16:33N 31°28' E 029°42'1 0.8
2015-May-25 15:33N 31°28' E 029°42'1 0.8
2015-May-25 14:33N 31°29' E 029°41'1 0.8
2015-May-25 13:19N 31°30' E 029°40'5 6.4
2015-May-25 12:32N 31°25' E 029°42'1010.4
2015-May-25 11:33N 31°15' E 029°46'7 5.7
2015-May-25 10:19N 31°09' E 029°48'0 0.0
2015-May-25 09:25N 31°09' E 029°48'0 0.0
2015-May-25 08:31N 31°09' E 029°48'0 0.0
2015-May-25 02:25N 31°09' E 029°48'0 0.0
2015-May-23 05:19N 31°09' E 029°48'0 0.0
2015-May-23 02:07N 31°09' E 029°48'0 0.0
2015-May-22 21:31N 31°09' E 029°48'0 0.0
2015-May-22 18:28N 31°09' E 029°48'  
2015-May-18 22:09N 36°09' E 014°41'813.0
2015-May-18 21:33N 36°12' E 014°32'1313.0
2015-May-18 20:33N 36°17' E 014°17'1312.9
2015-May-18 19:33N 36°22' E 014°02'1512.9
2015-May-18 18:22N 36°27' E 013°45'  
Track history (hours):
 
Tides and Currents Weather Stations Pressure Air Temp Water Temp Dewpoint Dewpoint Depression Visibility Wind Speed Wind Dir Waves Ship Positions

Fonthida Naree

Last reported at 2015-May-27 05:33 UTC. Time now 2015-May-30 14:16 UTC.
Position N 31°47' E 029°28'.

Length 170 m; draft 9.3 m.

Type: Cargo ship. MMSI: 567265000.

Date/timePositionNaut miles runAvg speedWind from/ knotsBaromVisibWave heightAir tempDewpointWater temp
2015-May-27 05:33N 31°47' E 029°28'8 1.5
2015-May-27 00:20N 31°41' E 029°34'3 1.5
2015-May-26 22:14N 31°39' E 029°36'3 1.6
2015-May-26 20:25N 31°38' E 029°39'3 1.5
2015-May-26 18:26N 31°38' E 029°43'1 1.1
2015-May-26 17:21N 31°37' E 029°44'0 0.2
2015-May-26 16:33N 31°37' E 029°44'0 0.3
2015-May-26 15:34N 31°37' E 029°44'0 0.4
2015-May-26 14:29N 31°37' E 029°45'0 0.3
2015-May-26 13:33N 31°37' E 029°45'0 0.3
2015-May-26 12:33N 31°37' E 029°45'0 0.4
2015-May-26 11:23N 31°38' E 029°44'0 0.2
2015-May-26 10:33N 31°38' E 029°44'0 0.2
2015-May-26 09:27N 31°37' E 029°44'0 0.2
2015-May-26 08:25N 31°37' E 029°44'11 0.9
2015-May-25 20:19N 31°26' E 029°46'1 0.9
2015-May-25 19:19N 31°26' E 029°45'1 0.9
2015-May-25 18:29N 31°27' E 029°44'1 0.9
2015-May-25 17:27N 31°27' E 029°43'1 0.9
2015-May-25 16:33N 31°28' E 029°42'1 0.8
2015-May-25 15:33N 31°28' E 029°42'1 0.8
2015-May-25 14:33N 31°29' E 029°41'1 0.8
2015-May-25 13:19N 31°30' E 029°40'5 6.4
2015-May-25 12:32N 31°25' E 029°42'1010.4
2015-May-25 11:33N 31°15' E 029°46'7 5.7
2015-May-25 10:19N 31°09' E 029°48'0 0.0
2015-May-25 09:25N 31°09' E 029°48'0 0.0
2015-May-25 08:31N 31°09' E 029°48'0 0.0
2015-May-25 02:25N 31°09' E 029°48'0 0.0
2015-May-23 05:19N 31°09' E 029°48'0 0.0
2015-May-23 02:07N 31°09' E 029°48'0 0.0
2015-May-22 21:31N 31°09' E 029°48'0 0.0
2015-May-22 18:28N 31°09' E 029°48'  
2015-May-18 22:09N 36°09' E 014°41'813.0
2015-May-18 21:33N 36°12' E 014°32'1313.0
2015-May-18 20:33N 36°17' E 014°17'1312.9
2015-May-18 19:33N 36°22' E 014°02'1512.9
2015-May-18 18:22N 36°27' E 013°45'  

Dump ship's entire track history